Time;durP1;ratioP1;P1;durP2;ratioP2;P2;SDS_P1;SDS_P2;PMS_P1;PMS_P2;Temp;Humidity;BMP_temperature;BMP_pressure;BME280_temperature;BME280_humidity;BME280_pressure;Samples;Min_cycle;Max_cycle;Signal;HPM_P1;HPM_P2
2022/01/27 00:00:46;;;;;;;;;64.25;49.50;;;;;5.93;60.16;102867.41;5045885;28;45359;-49
2022/01/27 00:05:52;;;;;;;;;58.00;44.00;;;;;5.96;60.31;102856.19;5037474;28;45277;-45
2022/01/27 00:08:29;;;;;;;;;61.25;45.50;;;;;5.96;60.25;102859.72;5051060;28;45367;-46
2022/01/27 00:10:59;;;;;;;;;58.50;45.25;;;;;5.97;60.13;102853.63;5026212;28;45639;-47
2022/01/27 00:13:32;;;;;;;;;62.00;44.50;;;;;6.00;60.21;102850.31;5038018;28;45364;-45
2022/01/27 00:16:16;;;;;;;;;61.75;45.50;;;;;6.03;60.27;102847.81;5039217;28;46160;-47
2022/01/27 00:18:45;;;;;;;;;62.25;45.00;;;;;6.04;60.23;102847.00;5052614;28;45334;-46
2022/01/27 00:21:11;;;;;;;;;31.75;26.50;;;;;6.06;60.37;102847.91;5051709;28;45313;-47
2022/01/27 00:23:37;;;;;;;;;57.50;45.00;;;;;6.07;60.15;102844.47;5045562;28;45543;-47
2022/01/27 00:26:03;;;;;;;;;59.00;41.25;;;;;6.09;60.01;102841.91;5046498;28;46977;-50
2022/01/27 00:28:28;;;;;;;;;54.75;42.75;;;;;6.11;60.23;102840.28;5052428;28;45252;-46
2022/01/27 00:30:54;;;;;;;;;63.50;46.75;;;;;6.13;60.22;102846.44;5051570;28;45462;-48
2022/01/27 00:33:19;;;;;;;;;47.00;37.75;;;;;6.14;60.06;102845.63;5045438;28;45227;-47
2022/01/27 00:35:45;;;;;;;;;59.50;45.75;;;;;6.16;60.27;102850.06;5046877;28;45490;-45
2022/01/27 00:38:10;;;;;;;;;58.00;43.75;;;;;6.19;60.14;102844.06;5047741;28;45255;-50
2022/01/27 00:40:35;;;;;;;;;50.50;42.00;;;;;6.22;60.12;102838.94;5054277;28;45875;-46
2022/01/27 00:43:01;;;;;;;;;62.25;48.25;;;;;6.23;60.10;102842.47;5048825;28;45380;-47
2022/01/27 00:45:29;;;;;;;;;63.25;46.50;;;;;6.24;60.22;102846.84;5050105;28;47104;-48
2022/01/27 00:47:55;;;;;;;;;55.00;43.25;;;;;6.24;60.20;102841.63;5055600;28;45419;-49
2022/01/27 00:50:21;;;;;;;;;53.25;40.00;;;;;6.22;60.04;102825.03;5055003;28;45318;-46
2022/01/27 00:52:53;;;;;;;;;58.75;44.50;;;;;6.26;60.18;102832.13;5048854;28;45169;-49
2022/01/27 00:55:21;;;;;;;;;57.75;41.75;;;;;6.25;60.16;102823.41;5048477;28;47000;-47
2022/01/27 01:00:26;;;;;;;;;51.25;40.00;;;;;6.23;60.04;102819.84;5055685;28;45334;-47
2022/01/27 01:02:57;;;;;;;;;66.50;49.75;;;;;6.21;60.17;102820.63;5051298;28;45275;-48
2022/01/27 01:07:55;;;;;;;;;64.00;48.25;;;;;6.13;60.18;102810.78;5050818;28;45546;-45
2022/01/27 01:15:59;;;;;;;;;61.75;49.75;;;;;6.05;60.21;102803.50;5051047;28;45322;-46
2022/01/27 01:21:20;;;;;;;;;58.75;48.25;;;;;5.99;60.20;102799.81;5052613;28;45519;-44
2022/01/27 01:29:50;;;;;;;;;64.00;49.50;;;;;5.82;60.13;102775.69;5053326;28;45282;-44
2022/01/27 01:34:58;;;;;;;;;61.50;47.00;;;;;5.86;60.31;102794.91;5055046;28;45228;-47
2022/01/27 01:37:24;;;;;;;;;61.75;47.25;;;;;5.83;60.21;102798.31;5050240;28;47089;-45
2022/01/27 01:39:49;;;;;;;;;65.25;48.50;;;;;5.84;60.40;102797.47;5046437;28;45382;-44
2022/01/27 01:42:15;;;;;;;;;64.50;43.50;;;;;5.81;60.52;102786.94;5049283;28;45268;-45
2022/01/27 01:44:41;;;;;;;;;67.25;50.00;;;;;5.80;60.23;102784.28;5054775;28;45177;-45
2022/01/27 01:47:07;;;;;;;;;61.50;49.25;;;;;5.76;60.58;102783.28;5054052;28;45314;-47
2022/01/27 01:49:32;;;;;;;;;65.00;50.25;;;;;5.75;60.42;102786.69;5047774;28;45361;-47
2022/01/27 01:52:06;;;;;;;;;60.50;47.25;;;;;5.73;60.36;102783.13;5048103;28;45489;-46
2022/01/27 01:54:32;;;;;;;;;59.00;46.25;;;;;5.72;60.35;102783.97;5028369;28;45261;-45
2022/01/27 01:56:57;;;;;;;;;67.75;47.75;;;;;5.70;60.37;102781.31;5053129;28;46221;-48
2022/01/27 01:59:23;;;;;;;;;62.00;46.75;;;;;5.72;60.32;102789.19;5048402;28;45272;-48
2022/01/27 02:01:48;;;;;;;;;65.50;49.75;;;;;5.70;60.34;102783.91;5048025;28;45286;-44
2022/01/27 02:04:14;;;;;;;;;60.25;43.75;;;;;5.69;60.26;102789.06;5050930;28;45276;-48
2022/01/27 02:06:56;;;;;;;;;61.75;47.50;;;;;5.68;60.45;102789.91;5041078;28;46152;-48
2022/01/27 02:20:10;;;;;;;;;66.00;47.25;;;;;5.42;60.67;102768.00;5054073;28;45319;-47
2022/01/27 02:22:35;;;;;;;;;68.25;50.00;;;;;5.36;60.97;102759.13;5050456;28;45401;-47
2022/01/27 02:25:03;;;;;;;;;58.50;43.25;;;;;5.34;60.73;102754.66;5045628;28;45369;-45
2022/01/27 02:27:29;;;;;;;;;63.50;47.75;;;;;5.29;60.78;102758.81;5049736;28;48041;-44
2022/01/27 02:29:54;;;;;;;;;60.25;46.75;;;;;5.25;60.54;102755.19;5054001;28;45431;-46
2022/01/27 02:32:22;;;;;;;;;61.00;48.25;;;;;5.18;60.70;102753.16;5052106;28;45330;-49
2022/01/27 02:34:47;;;;;;;;;64.50;48.00;;;;;5.19;60.71;102750.63;5047244;28;45322;-48
2022/01/27 02:37:13;;;;;;;;;59.00;45.00;;;;;5.19;60.64;102744.53;5046611;28;46145;-44
2022/01/27 02:39:39;;;;;;;;;62.00;46.25;;;;;5.18;60.87;102745.34;5043513;28;45177;-47
2022/01/27 02:42:21;;;;;;;;;58.50;45.00;;;;;5.18;60.76;102755.78;5048863;28;45410;-45
2022/01/27 02:44:46;;;;;;;;;61.75;48.25;;;;;5.17;60.72;102744.47;5028385;28;45256;-46
2022/01/27 02:47:13;;;;;;;;;56.25;42.00;;;;;5.16;60.69;102740.06;5053571;28;46056;-46
2022/01/27 02:49:38;;;;;;;;;52.25;39.50;;;;;5.14;60.89;102731.28;5048289;28;45213;-44
2022/01/27 02:52:04;;;;;;;;;64.75;45.50;;;;;5.14;60.71;102731.28;5044853;28;45256;-47
2022/01/27 02:54:30;;;;;;;;;59.00;46.25;;;;;5.13;60.74;102733.84;5048050;28;45526;-48
2022/01/27 02:56:55;;;;;;;;;59.75;43.75;;;;;5.11;60.76;102738.13;5045650;28;45400;-46
2022/01/27 02:59:21;;;;;;;;;63.25;43.50;;;;;5.10;60.77;102732.00;5047098;28;45220;-48
2022/01/27 03:01:48;;;;;;;;;56.50;44.75;;;;;5.10;60.58;102739.81;5044641;28;45458;-48
2022/01/27 03:04:15;;;;;;;;;60.00;43.25;;;;;5.02;60.89;102728.22;5049851;28;45422;-48
2022/01/27 03:06:41;;;;;;;;;58.75;44.75;;;;;5.00;60.79;102729.84;5040200;28;45363;-49
2022/01/27 03:09:06;;;;;;;;;62.75;49.50;;;;;4.98;61.21;102726.28;5051344;28;45356;-50
2022/01/27 03:11:39;;;;;;;;;60.50;47.75;;;;;4.98;60.95;102718.47;5044036;28;45296;-45
2022/01/27 03:14:05;;;;;;;;;59.25;45.50;;;;;5.00;60.71;102722.03;5025876;28;45423;-47
2022/01/27 03:16:30;;;;;;;;;52.50;39.75;;;;;5.01;61.12;102716.88;5039900;28;45434;-47
2022/01/27 03:18:56;;;;;;;;;55.75;41.75;;;;;5.02;60.96;102709.97;5047201;28;45219;-47
2022/01/27 03:21:21;;;;;;;;;62.75;47.00;;;;;5.04;60.86;102710.91;5046465;27;45166;-48
2022/01/27 03:23:47;;;;;;;;;49.00;41.50;;;;;5.03;60.67;102716.94;5051179;28;45541;-46
2022/01/27 03:26:13;;;;;;;;;64.00;46.75;;;;;4.99;60.83;102709.84;5040490;28;46244;-46
2022/01/27 03:28:38;;;;;;;;;61.00;44.50;;;;;5.01;60.71;102714.28;5052647;28;45213;-47
2022/01/27 03:31:04;;;;;;;;;60.50;44.00;;;;;4.98;60.91;102721.06;5053404;28;45345;-47
2022/01/27 03:33:29;;;;;;;;;53.25;42.00;;;;;4.94;60.92;102717.44;5047249;28;45238;-48
2022/01/27 03:35:54;;;;;;;;;54.50;42.50;;;;;4.96;60.91;102721.03;5046187;28;45941;-48
2022/01/27 03:38:20;;;;;;;;;60.00;44.50;;;;;4.97;60.74;102719.28;5047180;28;45251;-48
2022/01/27 03:40:45;;;;;;;;;52.50;43.00;;;;;4.96;60.75;102715.81;5039842;28;45349;-49
2022/01/27 03:43:11;;;;;;;;;55.25;40.25;;;;;4.97;60.83;102721.91;5052510;28;45340;-49
2022/01/27 03:45:37;;;;;;;;;50.25;40.25;;;;;4.93;60.68;102715.69;5052900;28;46231;-47
2022/01/27 03:48:04;;;;;;;;;52.75;39.75;;;;;4.93;61.19;102720.00;5047152;28;45406;-50
2022/01/27 03:50:29;;;;;;;;;51.50;38.25;;;;;4.91;61.20;102714.75;5045324;27;45347;-49
2022/01/27 03:52:55;;;;;;;;;52.00;40.25;;;;;4.87;61.04;102707.63;5039670;28;45410;-46
2022/01/27 03:55:20;;;;;;;;;52.50;42.50;;;;;4.87;61.10;102713.72;5034404;28;47295;-53
2022/01/27 03:57:46;;;;;;;;;53.50;39.00;;;;;4.84;60.92;102710.09;5045808;28;45435;-55
2022/01/27 04:00:12;;;;;;;;;61.25;43.50;;;;;4.84;61.08;102718.81;5045977;28;45324;-53
2022/01/27 04:02:41;;;;;;;;;42.50;35.75;;;;;4.84;61.10;102713.63;5052222;28;45137;-48
2022/01/27 04:05:07;;;;;;;;;44.00;35.00;;;;;4.84;61.34;102715.31;5039121;28;46247;-45
2022/01/27 04:07:33;;;;;;;;;58.25;43.50;;;;;4.85;61.38;102717.97;5039278;28;45336;-48
2022/01/27 04:09:58;;;;;;;;;55.25;39.25;;;;;4.86;61.10;102724.09;5037740;28;45402;-48
2022/01/27 04:12:23;;;;;;;;;54.75;40.00;;;;;4.86;61.12;102726.69;5043161;28;45572;-48
2022/01/27 04:14:49;;;;;;;;;45.75;39.00;;;;;4.85;61.50;102720.56;5041660;28;46322;-48
2022/01/27 04:17:14;;;;;;;;;59.25;46.00;;;;;4.84;61.26;102718.81;5054688;28;45310;-48
2022/01/27 04:19:40;;;;;;;;;54.75;42.25;;;;;4.81;60.95;102721.28;5054747;28;45272;-50
2022/01/27 04:22:05;;;;;;;;;38.50;33.00;;;;;4.81;61.35;102718.69;5049340;28;45330;-47
2022/01/27 04:24:31;;;;;;;;;56.25;40.50;;;;;4.77;61.22;102715.88;5049217;28;45945;-46
2022/01/27 04:27:04;;;;;;;;;56.75;42.25;;;;;4.78;61.13;102725.47;5041365;28;46122;-48
2022/01/27 04:29:33;;;;;;;;;49.25;39.75;;;;;4.78;61.22;102717.66;5043672;28;45327;-45
2022/01/27 04:32:01;;;;;;;;;51.00;38.00;;;;;4.79;61.32;102722.03;5054502;28;45235;-45
2022/01/27 04:34:26;;;;;;;;;48.25;40.00;;;;;4.78;60.90;102718.56;5055959;28;46217;-48
2022/01/27 04:36:54;;;;;;;;;56.00;41.25;;;;;4.78;61.29;102718.56;5042535;28;45314;-48
2022/01/27 04:39:37;;;;;;;;;52.25;39.75;;;;;4.80;61.13;102722.09;5039826;28;45430;-48
2022/01/27 04:42:20;;;;;;;;;52.75;39.50;;;;;4.80;61.32;102722.09;5051320;28;45460;-46
2022/01/27 04:44:54;;;;;;;;;54.50;40.25;;;;;4.75;61.39;102709.72;5029721;28;45234;-46
2022/01/27 04:47:35;;;;;;;;;49.75;37.50;;;;;4.71;61.24;102717.41;5055730;28;45193;-45
2022/01/27 04:50:01;;;;;;;;;49.75;37.50;;;;;4.75;61.48;102726.22;5053251;28;45590;-43
2022/01/27 04:52:29;;;;;;;;;48.75;39.25;;;;;4.73;61.36;102725.31;5048982;28;45220;-43
2022/01/27 04:57:19;;;;;;;;;52.25;40.50;;;;;4.73;61.13;102714.88;5055699;28;45227;-44
2022/01/27 04:59:45;;;;;;;;;43.00;37.25;;;;;4.70;61.46;102723.47;5042235;28;45153;-46
2022/01/27 05:02:20;;;;;;;;;48.75;39.00;;;;;4.68;61.23;102727.72;5046431;28;45568;-46
2022/01/27 05:04:49;;;;;;;;;49.50;38.00;;;;;4.60;61.14;102699.56;5047899;28;45422;-44
2022/01/27 05:07:15;;;;;;;;;50.00;38.25;;;;;4.67;61.56;102712.03;5045089;28;45346;-49
2022/01/27 05:09:50;;;;;;;;;49.50;37.00;;;;;4.65;61.46;102713.66;5049573;28;45866;-46
2022/01/27 05:12:25;;;;;;;;;44.75;36.25;;;;;4.64;61.64;102709.28;5040304;28;45415;-49
2022/01/27 05:14:51;;;;;;;;;45.00;36.50;;;;;4.62;61.52;102697.91;5041825;28;46255;-49
2022/01/27 05:17:18;;;;;;;;;36.50;27.75;;;;;4.61;61.39;102701.34;5055360;28;45250;-48
2022/01/27 05:19:47;;;;;;;;;50.25;40.25;;;;;4.60;61.41;102691.75;5055072;28;45226;-45
2022/01/27 05:22:12;;;;;;;;;46.50;38.25;;;;;4.54;61.41;102693.28;5029019;28;45522;-46
2022/01/27 05:24:38;;;;;;;;;48.00;42.75;;;;;4.58;61.33;102690.78;5054387;28;45351;-46
2022/01/27 05:27:03;;;;;;;;;47.00;40.00;;;;;4.61;61.42;102696.13;5041143;28;45297;-44
2022/01/27 05:29:29;;;;;;;;;52.25;41.25;;;;;4.61;61.67;102699.63;5055210;28;45306;-45
2022/01/27 05:31:54;;;;;;;;;54.50;40.00;;;;;4.64;61.19;102702.38;5048175;28;45418;-44
2022/01/27 05:34:19;;;;;;;;;53.00;41.00;;;;;4.61;61.20;102694.41;5048238;28;45333;-45
2022/01/27 05:36:45;;;;;;;;;51.25;42.25;;;;;4.61;61.41;102698.75;5055002;28;45341;-45
2022/01/27 05:39:10;;;;;;;;;52.00;41.00;;;;;4.62;61.21;102698.78;5036310;28;45296;-44
2022/01/27 05:41:35;;;;;;;;;44.50;39.75;;;;;4.63;61.18;102699.69;5054520;28;45303;-46
2022/01/27 05:44:01;;;;;;;;;50.25;38.25;;;;;4.62;61.59;102700.53;5053517;28;45893;-49
2022/01/27 05:46:26;;;;;;;;;43.50;37.00;;;;;4.62;61.31;102697.91;5048242;28;45354;-47
2022/01/27 05:48:51;;;;;;;;;52.50;40.25;;;;;4.63;61.42;102700.59;5048183;28;45630;-48
2022/01/27 05:51:17;;;;;;;;;53.25;38.00;;;;;4.63;61.45;102699.69;5055047;28;45218;-47
2022/01/27 05:53:42;;;;;;;;;41.25;35.75;;;;;4.61;61.41;102686.59;5054502;28;45247;-48
2022/01/27 05:56:08;;;;;;;;;54.00;37.00;;;;;4.60;61.42;102691.75;5027871;28;45232;-48
2022/01/27 05:58:33;;;;;;;;;54.25;41.75;;;;;4.60;61.60;102686.53;5054494;28;45363;-48
2022/01/27 06:00:58;;;;;;;;;40.00;35.00;;;;;4.61;61.48;102685.72;5046901;28;45509;-47
2022/01/27 06:03:24;;;;;;;;;46.00;39.25;;;;;4.58;61.47;102685.56;5046088;28;46030;-44
2022/01/27 06:05:49;;;;;;;;;53.00;41.00;;;;;4.58;61.13;102688.19;5040990;28;45246;-45
2022/01/27 06:08:14;;;;;;;;;49.50;38.00;;;;;4.60;61.59;102691.75;5052935;28;45383;-48
2022/01/27 06:10:40;;;;;;;;;46.75;37.00;;;;;4.60;61.31;102694.34;5045978;28;45383;-44
2022/01/27 06:13:05;;;;;;;;;46.75;37.00;;;;;4.61;61.63;102690.94;5040771;28;46306;-46
2022/01/27 06:15:31;;;;;;;;;50.75;39.00;;;;;4.60;61.44;102691.75;5054372;28;45232;-47
2022/01/27 06:17:58;;;;;;;;;55.00;40.50;;;;;4.60;61.20;102695.22;5053111;28;45369;-44
2022/01/27 06:20:23;;;;;;;;;48.75;40.00;;;;;4.63;61.74;102702.28;5047193;28;45244;-44
2022/01/27 06:22:53;;;;;;;;;53.50;39.75;;;;;4.63;61.66;102699.69;5048324;28;46250;-46
2022/01/27 06:25:18;;;;;;;;;52.00;40.25;;;;;4.60;61.67;102709.97;5052809;28;45307;-45
2022/01/27 06:27:44;;;;;;;;;64.00;43.75;;;;;4.62;61.37;102706.59;5053298;28;45434;-44
2022/01/27 06:30:12;;;;;;;;;51.50;39.25;;;;;4.61;61.81;102711.75;5047182;28;45309;-45
2022/01/27 06:32:38;;;;;;;;;55.50;40.25;;;;;4.61;61.37;102709.16;5047376;28;46135;-49
2022/01/27 06:35:04;;;;;;;;;54.50;41.00;;;;;4.61;61.70;102709.16;5027622;28;45391;-46
2022/01/27 06:37:33;;;;;;;;;54.50;38.50;;;;;4.63;61.56;102715.31;5049520;28;45263;-45
2022/01/27 06:39:59;;;;;;;;;49.75;38.50;;;;;4.65;61.71;102719.75;5047471;28;45190;-49
2022/01/27 06:42:25;;;;;;;;;52.75;40.25;;;;;4.55;61.33;102708.09;5046617;28;45473;-47
2022/01/27 06:44:50;;;;;;;;;49.25;38.50;;;;;4.63;61.28;102716.22;5051464;28;45725;-47
2022/01/27 06:47:16;;;;;;;;;47.50;36.50;;;;;4.68;61.50;102719.03;5041515;28;45308;-48
2022/01/27 06:49:41;;;;;;;;;54.00;40.00;;;;;4.71;61.42;102726.94;5052850;28;45294;-48
2022/01/27 06:52:07;;;;;;;;;49.75;39.25;;;;;4.72;61.32;102724.41;5053620;28;45678;-47
2022/01/27 06:54:33;;;;;;;;;44.00;37.00;;;;;4.74;61.59;102724.44;5048148;28;45382;-46
2022/01/27 06:56:58;;;;;;;;;43.50;35.00;;;;;4.77;61.53;102727.19;5045735;28;45373;-48
2022/01/27 06:59:24;;;;;;;;;56.50;42.50;;;;;4.78;61.68;102722.88;5040170;28;45670;-48
2022/01/27 07:01:49;;;;;;;;;57.50;43.00;;;;;4.78;61.34;102721.16;5041272;28;45467;-47
2022/01/27 07:04:14;;;;;;;;;50.25;43.00;;;;;4.76;61.42;102720.22;5050544;28;45401;-48
2022/01/27 07:06:40;;;;;;;;;57.00;42.00;;;;;4.77;61.52;102729.81;5040352;28;45303;-47
2022/01/27 07:09:05;;;;;;;;;56.00;42.50;;;;;4.78;61.58;102733.28;5049917;28;45377;-45
2022/01/27 07:11:30;;;;;;;;;53.50;40.50;;;;;4.77;61.68;102724.59;5043809;28;47427;-46
2022/01/27 07:13:56;;;;;;;;;45.00;40.00;;;;;4.72;61.64;102731.34;5044215;28;45243;-49
2022/01/27 07:16:21;;;;;;;;;56.50;42.50;;;;;4.76;61.45;102733.22;5047747;27;45400;-50
2022/01/27 07:18:47;;;;;;;;;50.75;41.50;;;;;4.78;61.52;102733.28;5053406;28;45481;-48
2022/01/27 07:21:12;;;;;;;;;54.00;42.25;;;;;4.78;61.90;102735.91;5050753;28;46936;-45
2022/01/27 07:23:38;;;;;;;;;53.25;39.25;;;;;4.80;61.53;102727.31;5046073;28;45260;-46
2022/01/27 07:26:03;;;;;;;;;50.00;42.75;;;;;4.80;61.41;102740.34;5047511;28;45774;-49
2022/01/27 07:28:29;;;;;;;;;62.00;45.25;;;;;4.82;61.35;102741.31;5052982;28;45201;-45
2022/01/27 07:30:54;;;;;;;;;50.25;38.50;;;;;4.82;61.53;102746.50;5051879;28;46959;-47
2022/01/27 07:33:19;;;;;;;;;57.00;42.50;;;;;4.85;61.53;102744.03;5046328;28;45295;-47
2022/01/27 07:35:45;;;;;;;;;50.25;40.25;;;;;4.85;61.64;102736.22;5047721;28;45611;-44
2022/01/27 07:38:10;;;;;;;;;53.25;42.75;;;;;4.86;61.31;102745.81;5048297;28;45235;-43
2022/01/27 07:40:36;;;;;;;;;50.25;39.75;;;;;4.87;61.76;102738.91;5051365;28;46127;-43
2022/01/27 07:43:01;;;;;;;;;54.25;44.50;;;;;4.88;61.33;102728.53;5044880;28;45330;-44
2022/01/27 07:45:27;;;;;;;;;59.50;42.00;;;;;4.84;61.69;102726.63;5047416;28;45327;-45
2022/01/27 07:47:52;;;;;;;;;54.00;42.75;;;;;4.86;61.53;102735.38;5052809;28;45494;-44
2022/01/27 07:50:18;;;;;;;;;59.00;45.00;;;;;4.83;61.63;102729.16;5055505;28;46977;-46
2022/01/27 07:52:43;;;;;;;;;56.25;43.75;;;;;4.85;61.71;102737.94;5049817;28;45276;-43
2022/01/27 07:55:10;;;;;;;;;57.25;44.75;;;;;4.86;61.51;102735.38;5050272;28;45379;-48
2022/01/27 07:57:36;;;;;;;;;50.75;40.50;;;;;4.81;61.84;102741.25;5056628;28;45400;-46
2022/01/27 08:00:04;;;;;;;;;53.00;39.50;;;;;4.82;61.87;102735.22;5056041;28;46128;-44
2022/01/27 08:02:30;;;;;;;;;58.25;43.25;;;;;4.78;61.88;102736.81;5029734;28;45224;-44
2022/01/27 08:04:55;;;;;;;;;51.75;42.50;;;;;4.72;61.96;102727.00;5042813;28;45406;-45
2022/01/27 08:07:20;;;;;;;;;50.00;42.00;;;;;4.75;61.83;102735.78;5042858;28;45475;-44
2022/01/27 08:09:48;;;;;;;;;51.25;37.75;;;;;4.77;61.71;102731.50;5042485;28;46210;-44
2022/01/27 08:12:13;;;;;;;;;53.25;42.50;;;;;4.76;61.81;102738.44;5047637;28;45332;-47
2022/01/27 08:14:39;;;;;;;;;55.00;40.75;;;;;4.77;61.88;102734.09;5054329;28;45399;-46
2022/01/27 08:17:04;;;;;;;;;58.25;42.00;;;;;4.80;61.76;102734.25;5049386;28;45319;-46
2022/01/27 08:19:29;;;;;;;;;52.50;41.75;;;;;4.82;61.58;102733.50;5051511;28;45300;-45
2022/01/27 08:21:55;;;;;;;;;57.50;47.25;;;;;4.82;61.67;102733.50;5055786;28;45235;-43
2022/01/27 08:24:20;;;;;;;;;50.25;41.25;;;;;4.82;61.84;102738.69;5053963;28;45307;-44
2022/01/27 08:26:47;;;;;;;;;53.25;41.00;;;;;4.83;61.81;102742.19;5049256;28;45310;-43
2022/01/27 08:29:21;;;;;;;;;43.25;36.25;;;;;4.86;61.65;102743.19;5050953;28;46900;-45
2022/01/27 08:34:35;;;;;;;;;59.75;44.00;;;;;4.85;61.92;102743.16;5056121;28;45252;-44
2022/01/27 08:37:12;;;;;;;;;58.75;45.75;;;;;4.84;62.21;102739.66;5051379;28;45311;-45
2022/01/27 08:39:39;;;;;;;;;60.50;44.75;;;;;4.86;61.51;102750.13;5044425;28;47091;-46
2022/01/27 08:42:06;;;;;;;;;52.00;41.00;;;;;4.87;61.59;102744.97;5051323;27;45408;-47
2022/01/27 08:44:31;;;;;;;;;51.50;40.25;;;;;4.84;61.65;102752.69;5055658;28;45311;-43
2022/01/27 08:46:57;;;;;;;;;52.25;40.25;;;;;4.83;61.71;102740.50;5053292;28;45486;-47
2022/01/27 08:49:25;;;;;;;;;52.50;42.50;;;;;4.83;61.71;102734.38;5048564;28;45302;-45
2022/01/27 08:51:50;;;;;;;;;55.00;43.75;;;;;4.81;61.60;102739.53;5050895;28;45306;-44
2022/01/27 08:54:16;;;;;;;;;63.25;44.75;;;;;4.88;61.82;102744.16;5055529;28;45312;-45
2022/01/27 08:56:42;;;;;;;;;58.75;44.00;;;;;4.88;61.53;102751.97;5053661;28;45344;-48
2022/01/27 08:59:07;;;;;;;;;45.25;37.00;;;;;4.91;61.60;102737.31;5048601;28;45386;-48
2022/01/27 09:01:33;;;;;;;;;50.25;38.25;;;;;4.92;62.01;102741.66;5050094;28;45279;-45
2022/01/27 09:03:58;;;;;;;;;57.25;45.75;;;;;4.90;61.72;102739.00;5052247;28;45462;-48
2022/01/27 09:06:24;;;;;;;;;57.00;45.00;;;;;4.94;61.88;102733.09;5042177;28;45387;-46
2022/01/27 09:08:50;;;;;;;;;54.00;44.75;;;;;4.91;61.76;102721.69;5053205;28;45866;-45
2022/01/27 09:11:16;;;;;;;;;62.25;46.75;;;;;4.96;61.65;102730.56;5047090;28;45391;-46
2022/01/27 09:13:42;;;;;;;;;62.50;44.50;;;;;4.96;61.51;102734.06;5045605;28;45223;-48
2022/01/27 09:16:09;;;;;;;;;57.00;44.25;;;;;4.97;61.78;102724.50;5050080;28;45517;-43
2022/01/27 09:18:34;;;;;;;;;64.00;47.50;;;;;4.96;61.74;102723.63;5045745;28;45438;-45
2022/01/27 09:21:04;;;;;;;;;53.00;42.00;;;;;4.98;61.65;102719.38;5050893;28;45413;-45
2022/01/27 09:23:29;;;;;;;;;57.50;43.75;;;;;5.00;61.97;102717.72;5041505;28;45326;-46
2022/01/27 09:26:02;;;;;;;;;61.00;47.00;;;;;5.04;61.77;102722.25;5041466;28;45496;-46
2022/01/27 09:28:27;;;;;;;;;63.00;46.25;;;;;5.07;61.90;102715.34;5054731;28;47256;-42
2022/01/27 09:30:53;;;;;;;;;68.50;49.75;;;;;5.10;61.52;102707.69;5054212;28;45335;-43
2022/01/27 09:33:18;;;;;;;;;65.00;47.75;;;;;5.13;62.00;102715.59;5040930;28;45401;-45
2022/01/27 09:35:45;;;;;;;;;63.00;47.00;;;;;5.10;61.84;102713.75;5041616;28;45327;-44
2022/01/27 09:38:11;;;;;;;;;57.25;42.00;;;;;5.14;61.76;102723.47;5048554;28;46479;-47
2022/01/27 09:40:37;;;;;;;;;60.25;47.25;;;;;5.14;61.60;102714.78;5053590;28;45500;-48
2022/01/27 09:43:04;;;;;;;;;56.75;44.00;;;;;5.19;61.89;102723.66;5046794;28;45260;-47
2022/01/27 09:45:31;;;;;;;;;50.00;41.75;;;;;5.17;61.73;102734.03;5048930;28;45398;-45
2022/01/27 09:48:02;;;;;;;;;59.25;44.00;;;;;5.17;62.03;102709.66;5054621;28;47267;-44
2022/01/27 09:52:58;;;;;;;;;55.00;45.50;;;;;5.20;61.92;102705.47;5041408;28;45276;-44
2022/01/27 09:55:24;;;;;;;;;56.75;41.00;;;;;5.28;61.90;102707.50;5041647;28;45231;-46
2022/01/27 09:57:53;;;;;;;;;53.25;42.75;;;;;5.31;61.59;102707.63;5053918;28;46580;-45
2022/01/27 10:00:20;;;;;;;;;58.50;42.25;;;;;5.30;61.93;102705.84;5054433;28;45234;-43
2022/01/27 10:03:13;;;;;;;;;55.00;42.50;;;;;5.32;61.94;102709.38;5049451;28;45162;-47
2022/01/27 10:05:39;;;;;;;;;51.00;42.50;;;;;5.39;62.05;102711.41;5039542;28;45427;-44
2022/01/27 10:08:11;;;;;;;;;59.75;42.75;;;;;5.44;61.95;102703.78;5051704;28;46116;-45
2022/01/27 10:10:42;;;;;;;;;59.25;42.00;;;;;5.45;62.12;102705.56;5040660;28;45358;-45
2022/01/27 10:13:11;;;;;;;;;52.75;40.50;;;;;5.50;62.03;102709.22;5046441;28;45431;-44
2022/01/27 10:15:41;;;;;;;;;56.25;42.75;;;;;5.55;62.09;102712.91;5046835;28;45379;-46
2022/01/27 10:18:14;;;;;;;;;54.75;44.25;;;;;5.59;62.00;102720.00;5047503;28;46360;-48
2022/01/27 10:20:43;;;;;;;;;63.50;47.00;;;;;5.61;62.09;102707.00;5052882;28;45230;-44
2022/01/27 10:23:19;;;;;;;;;56.25;44.25;;;;;5.64;62.19;102715.84;5053850;28;45385;-48
2022/01/27 10:25:49;;;;;;;;;54.25;43.00;;;;;5.67;61.84;102709.84;5050776;28;45336;-47
2022/01/27 10:31:12;;;;;;;;;58.75;42.00;;;;;5.75;61.93;102705.81;5047475;28;45245;-46
2022/01/27 10:33:45;;;;;;;;;53.75;41.00;;;;;5.77;62.09;102711.97;5029050;28;45332;-46
2022/01/27 10:36:22;;;;;;;;;48.75;38.75;;;;;5.85;62.03;102722.72;5054082;28;45224;-44
2022/01/27 10:39:02;;;;;;;;;59.25;42.50;;;;;5.86;62.13;102724.47;5035756;28;45402;-49
2022/01/27 10:41:32;;;;;;;;;54.00;43.75;;;;;5.92;61.89;102709.03;5053661;28;45207;-56
2022/01/27 10:44:11;;;;;;;;;59.00;47.25;;;;;5.96;61.96;102721.38;5054053;28;45324;-57
2022/01/27 10:46:42;;;;;;;;;60.75;43.00;;;;;5.96;61.88;102710.94;5028916;28;45322;-45
2022/01/27 10:49:11;;;;;;;;;53.00;44.00;;;;;5.99;62.16;102718.91;5053635;28;46363;-48
2022/01/27 10:51:45;;;;;;;;;56.25;41.25;;;;;6.04;61.90;102718.19;5050430;28;45357;-44
2022/01/27 10:54:22;;;;;;;;;53.50;42.25;;;;;6.10;62.00;102711.47;5046786;28;45318;-47
2022/01/27 10:56:48;;;;;;;;;53.75;42.50;;;;;6.11;62.07;102721.09;5046387;28;45927;-44
2022/01/27 10:59:17;;;;;;;;;53.50;42.25;;;;;6.13;61.99;102708.97;5053671;28;46063;-44
2022/01/27 11:01:45;;;;;;;;;54.00;42.00;;;;;6.19;62.04;102713.53;5053452;28;45266;-46
2022/01/27 11:04:12;;;;;;;;;57.00;41.00;;;;;6.16;62.07;102698.66;5028766;28;45459;-43
2022/01/27 11:06:53;;;;;;;;;54.25;42.50;;;;;6.24;62.09;102713.66;5040229;28;45445;-49
2022/01/27 11:09:20;;;;;;;;;58.75;44.50;;;;;6.23;61.98;102704.09;5028944;28;46043;-48
2022/01/27 11:11:48;;;;;;;;;52.50;38.00;;;;;6.24;61.99;102700.63;5045197;28;45390;-46
2022/01/27 11:14:14;;;;;;;;;57.75;43.00;;;;;6.30;61.76;102703.44;5048599;28;45348;-46
2022/01/27 11:16:42;;;;;;;;;62.25;46.75;;;;;6.30;61.78;102696.50;5046878;28;45231;-48
2022/01/27 11:22:02;;;;;;;;;56.75;42.00;;;;;6.33;61.93;102714.88;5053240;28;45464;-46
2022/01/27 11:25:51;;;;;;;;;51.75;40.25;;;;;6.32;61.80;102696.56;5051935;28;45679;-45
2022/01/27 11:27:33;;;;;;;;;55.25;43.25;;;;;6.34;61.88;102693.16;5033826;28;45224;-53
2022/01/27 11:30:07;;;;;;;;;53.75;41.25;;;;;6.32;61.79;102700.03;5051668;28;47170;-51
2022/01/27 11:32:40;;;;;;;;;46.75;33.50;;;;;6.35;61.94;102688.81;5046520;28;45504;-50
2022/01/27 11:35:17;;;;;;;;;54.75;40.75;;;;;6.38;61.73;102685.41;5035153;28;45393;-58
2022/01/27 11:37:49;;;;;;;;;56.25;44.00;;;;;6.42;61.71;102693.41;5040527;28;45353;-53
2022/01/27 11:40:15;;;;;;;;;54.25;41.00;;;;;6.40;61.76;102683.75;5038726;28;45712;-59
2022/01/27 11:42:42;;;;;;;;;57.00;42.00;;;;;6.43;61.81;102686.50;5042937;28;45309;-53
2022/01/27 11:45:22;;;;;;;;;57.25;42.25;;;;;6.44;61.62;102680.41;5049803;28;45408;-46
2022/01/27 11:48:06;;;;;;;;;49.75;40.00;;;;;6.43;61.61;102671.69;5052346;28;45181;-50
2022/01/27 11:53:36;;;;;;;;;53.25;42.00;;;;;6.50;61.93;102660.63;5049122;28;45231;-50
2022/01/27 11:56:29;;;;;;;;;51.75;39.75;;;;;6.48;61.74;102657.06;5045927;28;45236;-47
2022/01/27 11:59:01;;;;;;;;;49.75;41.00;;;;;6.50;61.83;102660.63;5043154;28;45508;-46
2022/01/27 12:01:31;;;;;;;;;60.25;47.75;;;;;6.57;61.72;102650.38;5047983;28;46381;-49
2022/01/27 12:04:02;;;;;;;;;58.25;44.75;;;;;6.57;61.71;102653.00;5051157;28;45366;-41
2022/01/27 12:06:29;;;;;;;;;53.25;40.75;;;;;6.58;61.80;102654.75;5039637;28;45313;-43
2022/01/27 12:09:20;;;;;;;;;60.50;44.25;;;;;6.60;61.91;102663.53;5049206;28;45598;-43
2022/01/27 12:11:47;;;;;;;;;50.00;39.25;;;;;6.60;62.09;102653.09;5038849;28;45548;-45